Time,TemperatureF,DewpointF,PressureIn,WindDirection,WindDirectionDegrees,WindSpeedMPH,WindSpeedGustMPH,Humidity,HourlyPrecipIn,Conditions,Clouds,dailyrainin,SoftwareType,DateUTC
2013-04-02 00:00:00,62.9,54.1,29.94,NNE,23,2.0,-999.0,73,0.00,,,0.00,Wunderground v.1.15,2013-04-02 10:00:00,
2013-04-02 00:05:00,62.9,54.1,29.94,NNE,23,2.0,-999.0,73,0.00,,,0.00,Wunderground v.1.15,2013-04-02 10:05:00,
2013-04-02 00:10:00,62.9,54.1,29.94,NNE,23,2.0,-999.0,73,0.00,,,0.00,Wunderground v.1.15,2013-04-02 10:10:00,
2013-04-02 00:15:00,62.9,54.1,29.94,NNE,23,2.0,-999.0,73,0.00,,,0.00,Wunderground v.1.15,2013-04-02 10:15:00,
2013-04-02 00:20:00,62.9,54.1,29.94,NNE,23,2.0,-999.0,73,0.00,,,0.00,Wunderground v.1.15,2013-04-02 10:20:00,
2013-04-02 00:25:00,62.9,54.1,29.94,NNE,23,2.0,-999.0,73,0.00,,,0.00,Wunderground v.1.15,2013-04-02 10:25:00,
2013-04-02 00:30:00,62.9,54.1,29.94,NNE,23,2.0,-999.0,73,0.00,,,0.00,Wunderground v.1.15,2013-04-02 10:30:00,
2013-04-02 00:35:00,62.9,54.1,29.94,NNE,23,2.0,-999.0,73,0.00,,,0.00,Wunderground v.1.15,2013-04-02 10:35:00,
2013-04-02 00:40:00,62.9,54.1,29.94,NNE,23,2.0,-999.0,73,0.00,,,0.00,Wunderground v.1.15,2013-04-02 10:40:00,
2013-04-02 00:45:00,62.8,54.0,29.94,NE,45,2.0,-999.0,73,0.00,,,0.00,Wunderground v.1.15,2013-04-02 10:45:00,
2013-04-02 00:50:00,62.8,54.0,29.94,NE,45,2.0,-999.0,73,0.00,,,0.00,Wunderground v.1.15,2013-04-02 10:50:00,
2013-04-02 00:55:00,62.8,54.0,29.94,NE,45,2.0,-999.0,73,0.00,,,0.00,Wunderground v.1.15,2013-04-02 10:55:00,
2013-04-02 01:00:00,62.8,54.0,29.94,NE,45,2.0,-999.0,73,0.00,,,0.00,Wunderground v.1.15,2013-04-02 11:00:00,
2013-04-02 01:05:00,62.8,54.0,29.94,NE,45,2.0,-999.0,73,0.00,,,0.00,Wunderground v.1.15,2013-04-02 11:05:00,
2013-04-02 01:10:00,62.8,54.0,29.94,NE,45,2.0,-999.0,73,0.00,,,0.00,Wunderground v.1.15,2013-04-02 11:10:00,
2013-04-02 01:15:00,62.3,54.3,29.93,NE,45,2.0,-999.0,75,0.00,,,0.00,Wunderground v.1.15,2013-04-02 11:15:00,
2013-04-02 01:20:00,62.3,54.3,29.93,NE,45,2.0,-999.0,75,0.00,,,0.00,Wunderground v.1.15,2013-04-02 11:20:00,
2013-04-02 01:25:00,62.3,54.3,29.93,NE,45,2.0,-999.0,75,0.00,,,0.00,Wunderground v.1.15,2013-04-02 11:25:00,
2013-04-02 01:30:00,62.3,54.3,29.93,NE,45,2.0,-999.0,75,0.00,,,0.00,Wunderground v.1.15,2013-04-02 11:30:00,
2013-04-02 01:35:00,62.3,54.3,29.93,NE,45,2.0,-999.0,75,0.00,,,0.00,Wunderground v.1.15,2013-04-02 11:35:00,
2013-04-02 01:40:00,62.3,54.3,29.93,NE,45,2.0,-999.0,75,0.00,,,0.00,Wunderground v.1.15,2013-04-02 11:40:00,
2013-04-02 01:45:00,62.7,53.5,29.93,NE,45,3.0,-999.0,72,0.00,,,0.00,Wunderground v.1.15,2013-04-02 11:45:00,
2013-04-02 01:50:00,62.7,53.5,29.93,NE,45,3.0,-999.0,72,0.00,,,0.00,Wunderground v.1.15,2013-04-02 11:50:00,
2013-04-02 01:55:00,62.7,53.5,29.93,NE,45,3.0,-999.0,72,0.00,,,0.00,Wunderground v.1.15,2013-04-02 11:55:00,
2013-04-02 02:00:00,62.7,53.5,29.93,NE,45,3.0,-999.0,72,0.00,,,0.00,Wunderground v.1.15,2013-04-02 12:00:00,
2013-04-02 02:05:00,62.7,53.5,29.93,NE,45,3.0,-999.0,72,0.00,,,0.00,Wunderground v.1.15,2013-04-02 12:05:00,
2013-04-02 02:10:00,62.7,53.5,29.93,NE,45,3.0,-999.0,72,0.00,,,0.00,Wunderground v.1.15,2013-04-02 12:10:00,
2013-04-02 02:15:00,64.4,55.2,29.92,NNE,23,3.0,-999.0,72,0.00,,,0.00,Wunderground v.1.15,2013-04-02 12:15:00,
2013-04-02 02:20:00,64.4,55.2,29.92,NNE,23,3.0,-999.0,72,0.00,,,0.00,Wunderground v.1.15,2013-04-02 12:20:00,
2013-04-02 02:25:00,64.4,55.2,29.92,NNE,23,3.0,-999.0,72,0.00,,,0.00,Wunderground v.1.15,2013-04-02 12:25:00,
2013-04-02 02:30:00,64.4,55.2,29.92,NNE,23,3.0,-999.0,72,0.00,,,0.00,Wunderground v.1.15,2013-04-02 12:30:00,
2013-04-02 02:35:00,64.4,55.2,29.92,NNE,23,3.0,-999.0,72,0.00,,,0.00,Wunderground v.1.15,2013-04-02 12:35:00,
2013-04-02 02:40:00,64.4,55.2,29.92,NNE,23,3.0,-999.0,72,0.00,,,0.00,Wunderground v.1.15,2013-04-02 12:40:00,
2013-04-02 02:45:00,63.4,53.8,29.92,NE,45,2.0,-999.0,71,0.00,,,0.00,Wunderground v.1.15,2013-04-02 12:45:00,
2013-04-02 02:50:00,63.4,53.8,29.92,NE,45,2.0,-999.0,71,0.00,,,0.00,Wunderground v.1.15,2013-04-02 12:50:00,
2013-04-02 02:55:00,63.4,53.8,29.92,NE,45,2.0,-999.0,71,0.00,,,0.00,Wunderground v.1.15,2013-04-02 12:55:00,
2013-04-02 03:00:00,63.4,53.8,29.92,NE,45,2.0,-999.0,71,0.00,,,0.00,Wunderground v.1.15,2013-04-02 13:00:00,
2013-04-02 03:05:00,63.4,53.8,29.92,NE,45,2.0,-999.0,71,0.00,,,0.00,Wunderground v.1.15,2013-04-02 13:05:00,
2013-04-02 03:10:00,63.4,53.8,29.92,NE,45,2.0,-999.0,71,0.00,,,0.00,Wunderground v.1.15,2013-04-02 13:10:00,
2013-04-02 03:15:00,64.0,52.8,29.91,North,0,4.0,-999.0,67,0.00,,,0.00,Wunderground v.1.15,2013-04-02 13:15:00,
2013-04-02 03:20:00,64.0,52.8,29.91,North,0,4.0,-999.0,67,0.00,,,0.00,Wunderground v.1.15,2013-04-02 13:20:00,
2013-04-02 03:25:00,64.0,52.8,29.91,North,0,4.0,-999.0,67,0.00,,,0.00,Wunderground v.1.15,2013-04-02 13:25:00,
2013-04-02 03:30:00,64.0,52.8,29.91,North,0,4.0,-999.0,67,0.00,,,0.00,Wunderground v.1.15,2013-04-02 13:30:00,
2013-04-02 03:35:00,64.0,52.8,29.91,North,0,4.0,-999.0,67,0.00,,,0.00,Wunderground v.1.15,2013-04-02 13:35:00,
2013-04-02 03:40:00,64.0,52.8,29.91,North,0,4.0,-999.0,67,0.00,,,0.00,Wunderground v.1.15,2013-04-02 13:40:00,
2013-04-02 03:45:00,64.2,52.6,29.92,North,0,2.0,-999.0,66,0.00,,,0.00,Wunderground v.1.15,2013-04-02 13:45:00,
2013-04-02 03:50:00,64.2,52.6,29.92,North,0,2.0,-999.0,66,0.00,,,0.00,Wunderground v.1.15,2013-04-02 13:50:00,
2013-04-02 03:55:00,64.2,52.6,29.92,North,0,2.0,-999.0,66,0.00,,,0.00,Wunderground v.1.15,2013-04-02 13:55:00,
2013-04-02 04:00:00,64.2,52.6,29.92,North,0,2.0,-999.0,66,0.00,,,0.00,Wunderground v.1.15,2013-04-02 14:00:00,
2013-04-02 04:05:00,64.2,52.6,29.92,North,0,2.0,-999.0,66,0.00,,,0.00,Wunderground v.1.15,2013-04-02 14:05:00,
2013-04-02 04:10:00,64.2,52.6,29.92,North,0,2.0,-999.0,66,0.00,,,0.00,Wunderground v.1.15,2013-04-02 14:10:00,
2013-04-02 04:15:00,64.8,53.6,29.92,North,0,4.0,-999.0,67,0.00,,,0.00,Wunderground v.1.15,2013-04-02 14:15:00,
2013-04-02 04:20:00,64.8,53.6,29.92,North,0,4.0,-999.0,67,0.00,,,0.00,Wunderground v.1.15,2013-04-02 14:20:00,
2013-04-02 04:25:00,64.8,53.6,29.92,North,0,4.0,-999.0,67,0.00,,,0.00,Wunderground v.1.15,2013-04-02 14:25:00,
2013-04-02 04:30:00,64.8,53.6,29.92,North,0,4.0,-999.0,67,0.00,,,0.00,Wunderground v.1.15,2013-04-02 14:30:00,
2013-04-02 04:35:00,64.8,53.6,29.92,North,0,4.0,-999.0,67,0.00,,,0.00,Wunderground v.1.15,2013-04-02 14:35:00,
2013-04-02 04:40:00,64.8,53.6,29.92,North,0,4.0,-999.0,67,0.00,,,0.00,Wunderground v.1.15,2013-04-02 14:40:00,
2013-04-02 04:45:00,64.5,55.3,29.93,NNE,23,3.0,-999.0,72,0.00,,,0.00,Wunderground v.1.15,2013-04-02 14:45:00,
2013-04-02 04:50:00,64.5,55.3,29.93,NNE,23,3.0,-999.0,72,0.00,,,0.00,Wunderground v.1.15,2013-04-02 14:50:00,
2013-04-02 04:55:00,64.5,55.3,29.93,NNE,23,3.0,-999.0,72,0.00,,,0.00,Wunderground v.1.15,2013-04-02 14:55:00,
2013-04-02 05:00:00,64.5,55.3,29.93,NNE,23,3.0,-999.0,72,0.00,,,0.00,Wunderground v.1.15,2013-04-02 15:00:00,
2013-04-02 05:05:00,64.5,55.3,29.93,NNE,23,3.0,-999.0,72,0.00,,,0.00,Wunderground v.1.15,2013-04-02 15:05:00,
2013-04-02 05:10:00,64.5,55.3,29.93,NNE,23,3.0,-999.0,72,0.00,,,0.00,Wunderground v.1.15,2013-04-02 15:10:00,
2013-04-02 05:15:00,62.7,54.3,29.94,NNE,23,2.0,-999.0,74,0.00,,,0.00,Wunderground v.1.15,2013-04-02 15:15:00,
2013-04-02 05:20:00,62.7,54.3,29.94,NNE,23,2.0,-999.0,74,0.00,,,0.00,Wunderground v.1.15,2013-04-02 15:20:00,
2013-04-02 05:25:00,62.7,54.3,29.94,NNE,23,2.0,-999.0,74,0.00,,,0.00,Wunderground v.1.15,2013-04-02 15:25:00,
2013-04-02 05:30:00,62.7,54.3,29.94,NNE,23,2.0,-999.0,74,0.00,,,0.00,Wunderground v.1.15,2013-04-02 15:30:00,
2013-04-02 05:35:00,62.7,54.3,29.94,NNE,23,2.0,-999.0,74,0.00,,,0.00,Wunderground v.1.15,2013-04-02 15:35:00,
2013-04-02 05:40:00,62.7,54.3,29.94,NNE,23,2.0,-999.0,74,0.00,,,0.00,Wunderground v.1.15,2013-04-02 15:40:00,
2013-04-02 05:45:00,62.2,53.4,29.94,NNE,23,3.0,-999.0,73,0.00,,,0.00,Wunderground v.1.15,2013-04-02 15:45:00,
2013-04-02 05:50:00,62.2,53.4,29.94,NNE,23,3.0,-999.0,73,0.00,,,0.00,Wunderground v.1.15,2013-04-02 15:50:00,
2013-04-02 05:55:00,62.2,53.4,29.94,NNE,23,3.0,-999.0,73,0.00,,,0.00,Wunderground v.1.15,2013-04-02 15:55:00,
2013-04-02 06:00:00,62.2,53.4,29.94,NNE,23,3.0,-999.0,73,0.00,,,0.00,Wunderground v.1.15,2013-04-02 16:00:00,
2013-04-02 06:05:00,62.2,53.4,29.94,NNE,23,3.0,-999.0,73,0.00,,,0.00,Wunderground v.1.15,2013-04-02 16:05:00,
2013-04-02 06:10:00,62.2,53.4,29.94,NNE,23,3.0,-999.0,73,0.00,,,0.00,Wunderground v.1.15,2013-04-02 16:10:00,
2013-04-02 06:15:00,62.2,53.8,29.94,NE,45,3.0,-999.0,74,0.00,,,0.00,Wunderground v.1.15,2013-04-02 16:15:00,
2013-04-02 06:20:00,62.2,53.8,29.94,NE,45,3.0,-999.0,74,0.00,,,0.00,Wunderground v.1.15,2013-04-02 16:20:00,
2013-04-02 06:25:00,62.2,53.8,29.94,NE,45,3.0,-999.0,74,0.00,,,0.00,Wunderground v.1.15,2013-04-02 16:25:00,
2013-04-02 06:30:00,62.2,53.8,29.94,NE,45,3.0,-999.0,74,0.00,,,0.00,Wunderground v.1.15,2013-04-02 16:30:00,
2013-04-02 06:35:00,62.2,53.8,29.94,NE,45,3.0,-999.0,74,0.00,,,0.00,Wunderground v.1.15,2013-04-02 16:35:00,
2013-04-02 06:40:00,62.2,53.8,29.94,NE,45,3.0,-999.0,74,0.00,,,0.00,Wunderground v.1.15,2013-04-02 16:40:00,
2013-04-02 06:45:00,61.8,53.8,29.96,NE,45,2.0,-999.0,75,0.00,,,0.00,Wunderground v.1.15,2013-04-02 16:45:00,
2013-04-02 06:50:00,61.8,53.8,29.96,NE,45,2.0,-999.0,75,0.00,,,0.00,Wunderground v.1.15,2013-04-02 16:50:00,
2013-04-02 06:55:00,61.8,53.8,29.96,NE,45,2.0,-999.0,75,0.00,,,0.00,Wunderground v.1.15,2013-04-02 16:55:00,
2013-04-02 07:08:00,61.8,53.8,29.96,NE,45,2.0,-999.0,75,0.00,,,0.00,Wunderground v.1.15,2013-04-02 17:08:00,
2013-04-02 16:00:00,77.1,54.1,29.94,NE,45,8.0,-999.0,45,0.00,,,0.00,Wunderground v.1.15,2013-04-03 02:00:00,
2013-04-02 16:05:00,77.1,54.1,29.94,NE,45,8.0,-999.0,45,0.00,,,0.00,Wunderground v.1.15,2013-04-03 02:05:00,
2013-04-02 16:10:00,77.1,54.1,29.94,NE,45,8.0,-999.0,45,0.00,,,0.00,Wunderground v.1.15,2013-04-03 02:10:00,
2013-04-02 16:15:00,76.7,53.8,29.94,NE,45,8.0,-999.0,45,0.00,,,0.00,Wunderground v.1.15,2013-04-03 02:15:00,
2013-04-02 16:20:00,76.7,53.8,29.94,NE,45,8.0,-999.0,45,0.00,,,0.00,Wunderground v.1.15,2013-04-03 02:20:00,
2013-04-02 16:25:00,76.7,53.8,29.94,NE,45,8.0,-999.0,45,0.00,,,0.00,Wunderground v.1.15,2013-04-03 02:25:00,
2013-04-02 16:30:00,76.7,53.8,29.94,NE,45,8.0,-999.0,45,0.00,,,0.00,Wunderground v.1.15,2013-04-03 02:30:00,
2013-04-02 16:35:00,76.7,53.8,29.94,NE,45,8.0,-999.0,45,0.00,,,0.00,Wunderground v.1.15,2013-04-03 02:35:00,
2013-04-02 16:40:00,76.7,53.8,29.94,NE,45,8.0,-999.0,45,0.00,,,0.00,Wunderground v.1.15,2013-04-03 02:40:00,
2013-04-02 16:45:00,75.0,55.1,29.95,NE,45,8.0,-999.0,50,0.00,,,0.00,Wunderground v.1.15,2013-04-03 02:45:00,
2013-04-02 16:50:00,75.0,55.1,29.95,NE,45,8.0,-999.0,50,0.00,,,0.00,Wunderground v.1.15,2013-04-03 02:50:00,
2013-04-02 16:55:00,75.0,55.1,29.95,NE,45,8.0,-999.0,50,0.00,,,0.00,Wunderground v.1.15,2013-04-03 02:55:00,
2013-04-02 17:00:00,75.0,55.1,29.95,NE,45,8.0,-999.0,50,0.00,,,0.00,Wunderground v.1.15,2013-04-03 03:00:00,
2013-04-02 17:05:00,75.0,55.1,29.95,NE,45,8.0,-999.0,50,0.00,,,0.00,Wunderground v.1.15,2013-04-03 03:05:00,
2013-04-02 17:10:00,75.0,55.1,29.95,NE,45,8.0,-999.0,50,0.00,,,0.00,Wunderground v.1.15,2013-04-03 03:10:00,
2013-04-02 17:15:00,73.6,54.9,29.95,NE,45,7.0,-999.0,52,0.00,,,0.00,Wunderground v.1.15,2013-04-03 03:15:00,
2013-04-02 17:20:00,73.6,54.9,29.95,NE,45,7.0,-999.0,52,0.00,,,0.00,Wunderground v.1.15,2013-04-03 03:20:00,
2013-04-02 17:25:00,73.6,54.9,29.95,NE,45,7.0,-999.0,52,0.00,,,0.00,Wunderground v.1.15,2013-04-03 03:25:00,
2013-04-02 17:30:00,73.6,54.9,29.95,NE,45,7.0,-999.0,52,0.00,,,0.00,Wunderground v.1.15,2013-04-03 03:30:00,
2013-04-02 17:35:00,73.6,54.9,29.95,NE,45,7.0,-999.0,52,0.00,,,0.00,Wunderground v.1.15,2013-04-03 03:35:00,
2013-04-02 17:40:00,73.6,54.9,29.95,NE,45,7.0,-999.0,52,0.00,,,0.00,Wunderground v.1.15,2013-04-03 03:40:00,
2013-04-02 17:45:00,71.9,54.3,29.96,NE,45,6.0,-999.0,54,0.00,,,0.00,Wunderground v.1.15,2013-04-03 03:45:00,
2013-04-02 17:50:00,71.9,54.3,29.96,NE,45,6.0,-999.0,54,0.00,,,0.00,Wunderground v.1.15,2013-04-03 03:50:00,
2013-04-02 17:55:00,71.9,54.3,29.96,NE,45,6.0,-999.0,54,0.00,,,0.00,Wunderground v.1.15,2013-04-03 03:55:00,
2013-04-02 18:00:00,71.9,54.3,29.96,NE,45,6.0,-999.0,54,0.00,,,0.00,Wunderground v.1.15,2013-04-03 04:00:00,
2013-04-02 18:05:00,71.9,54.3,29.96,NE,45,6.0,-999.0,54,0.00,,,0.00,Wunderground v.1.15,2013-04-03 04:05:00,
2013-04-02 18:10:00,71.9,54.3,29.96,NE,45,6.0,-999.0,54,0.00,,,0.00,Wunderground v.1.15,2013-04-03 04:10:00,
2013-04-02 18:15:00,69.7,54.7,29.97,NE,45,5.0,-999.0,59,0.00,,,0.00,Wunderground v.1.15,2013-04-03 04:15:00,
2013-04-02 18:20:00,69.7,54.7,29.97,NE,45,5.0,-999.0,59,0.00,,,0.00,Wunderground v.1.15,2013-04-03 04:20:00,
2013-04-02 18:25:00,69.7,54.7,29.97,NE,45,5.0,-999.0,59,0.00,,,0.00,Wunderground v.1.15,2013-04-03 04:25:00,
2013-04-02 18:30:00,69.7,54.7,29.97,NE,45,5.0,-999.0,59,0.00,,,0.00,Wunderground v.1.15,2013-04-03 04:30:00,
2013-04-02 18:35:00,69.7,54.7,29.97,NE,45,5.0,-999.0,59,0.00,,,0.00,Wunderground v.1.15,2013-04-03 04:35:00,
2013-04-02 18:40:00,69.7,54.7,29.97,NE,45,5.0,-999.0,59,0.00,,,0.00,Wunderground v.1.15,2013-04-03 04:40:00,
2013-04-02 18:45:00,67.6,54.6,29.98,NE,45,4.0,-999.0,63,0.00,,,0.00,Wunderground v.1.15,2013-04-03 04:45:00,
2013-04-02 18:50:00,67.6,54.6,29.98,NE,45,4.0,-999.0,63,0.00,,,0.00,Wunderground v.1.15,2013-04-03 04:50:00,
2013-04-02 18:55:00,67.6,54.6,29.98,NE,45,4.0,-999.0,63,0.00,,,0.00,Wunderground v.1.15,2013-04-03 04:55:00,
2013-04-02 19:00:00,67.6,54.6,29.98,NE,45,4.0,-999.0,63,0.00,,,0.00,Wunderground v.1.15,2013-04-03 05:00:00,
2013-04-02 19:05:00,67.6,54.6,29.98,NE,45,4.0,-999.0,63,0.00,,,0.00,Wunderground v.1.15,2013-04-03 05:05:00,
2013-04-02 19:10:00,67.6,54.6,29.98,NE,45,4.0,-999.0,63,0.00,,,0.00,Wunderground v.1.15,2013-04-03 05:10:00,
2013-04-02 19:15:00,66.0,54.7,29.99,NE,45,3.0,-999.0,67,0.00,,,0.00,Wunderground v.1.15,2013-04-03 05:15:00,
2013-04-02 19:20:00,66.0,54.7,29.99,NE,45,3.0,-999.0,67,0.00,,,0.00,Wunderground v.1.15,2013-04-03 05:20:00,
2013-04-02 19:25:00,66.0,54.7,29.99,NE,45,3.0,-999.0,67,0.00,,,0.00,Wunderground v.1.15,2013-04-03 05:25:00,
2013-04-02 19:30:00,66.0,54.7,29.99,NE,45,3.0,-999.0,67,0.00,,,0.00,Wunderground v.1.15,2013-04-03 05:30:00,
2013-04-02 19:35:00,66.0,54.7,29.99,NE,45,3.0,-999.0,67,0.00,,,0.00,Wunderground v.1.15,2013-04-03 05:35:00,
2013-04-02 19:40:00,66.0,54.7,29.99,NE,45,3.0,-999.0,67,0.00,,,0.00,Wunderground v.1.15,2013-04-03 05:40:00,
2013-04-02 19:45:00,64.9,54.5,29.99,NE,45,3.0,-999.0,69,0.00,,,0.00,Wunderground v.1.15,2013-04-03 05:45:00,
2013-04-02 19:50:00,64.9,54.5,29.99,NE,45,3.0,-999.0,69,0.00,,,0.00,Wunderground v.1.15,2013-04-03 05:50:00,
2013-04-02 19:55:00,64.9,54.5,29.99,NE,45,3.0,-999.0,69,0.00,,,0.00,Wunderground v.1.15,2013-04-03 05:55:00,
2013-04-02 20:00:00,64.9,54.5,29.99,NE,45,3.0,-999.0,69,0.00,,,0.00,Wunderground v.1.15,2013-04-03 06:00:00,
2013-04-02 20:05:00,64.9,54.5,29.99,NE,45,3.0,-999.0,69,0.00,,,0.00,Wunderground v.1.15,2013-04-03 06:05:00,
2013-04-02 20:10:00,64.9,54.5,29.99,NE,45,3.0,-999.0,69,0.00,,,0.00,Wunderground v.1.15,2013-04-03 06:10:00,
2013-04-02 20:15:00,64.6,54.6,29.99,NE,45,4.0,-999.0,70,0.00,,,0.00,Wunderground v.1.15,2013-04-03 06:15:00,
2013-04-02 20:20:00,64.6,54.6,29.99,NE,45,4.0,-999.0,70,0.00,,,0.00,Wunderground v.1.15,2013-04-03 06:20:00,
2013-04-02 20:25:00,64.6,54.6,29.99,NE,45,4.0,-999.0,70,0.00,,,0.00,Wunderground v.1.15,2013-04-03 06:25:00,
2013-04-02 20:30:00,64.6,54.6,29.99,NE,45,4.0,-999.0,70,0.00,,,0.00,Wunderground v.1.15,2013-04-03 06:30:00,
2013-04-02 20:35:00,64.6,54.6,29.99,NE,45,4.0,-999.0,70,0.00,,,0.00,Wunderground v.1.15,2013-04-03 06:35:00,
2013-04-02 20:40:00,64.6,54.6,29.99,NE,45,4.0,-999.0,70,0.00,,,0.00,Wunderground v.1.15,2013-04-03 06:40:00,
2013-04-02 20:45:00,64.2,55.0,30.00,NE,45,2.0,-999.0,72,0.00,,,0.00,Wunderground v.1.15,2013-04-03 06:45:00,
2013-04-02 20:50:00,64.2,55.0,30.00,NE,45,2.0,-999.0,72,0.00,,,0.00,Wunderground v.1.15,2013-04-03 06:50:00,
2013-04-02 20:55:00,64.2,55.0,30.00,NE,45,2.0,-999.0,72,0.00,,,0.00,Wunderground v.1.15,2013-04-03 06:55:00,
2013-04-02 21:00:00,64.2,55.0,30.00,NE,45,2.0,-999.0,72,0.00,,,0.00,Wunderground v.1.15,2013-04-03 07:00:00,
2013-04-02 21:05:00,64.2,55.0,30.00,NE,45,2.0,-999.0,72,0.00,,,0.00,Wunderground v.1.15,2013-04-03 07:05:00,
2013-04-02 21:10:00,64.2,55.0,30.00,NE,45,2.0,-999.0,72,0.00,,,0.00,Wunderground v.1.15,2013-04-03 07:10:00,
2013-04-02 21:15:00,63.8,56.8,30.01,NE,45,3.0,-999.0,78,0.00,,,0.00,Wunderground v.1.15,2013-04-03 07:15:00,
2013-04-02 21:20:00,63.8,56.8,30.01,NE,45,3.0,-999.0,78,0.00,,,0.00,Wunderground v.1.15,2013-04-03 07:20:00,
2013-04-02 21:25:00,63.8,56.8,30.01,NE,45,3.0,-999.0,78,0.00,,,0.00,Wunderground v.1.15,2013-04-03 07:25:00,
2013-04-02 21:30:00,63.8,56.8,30.01,NE,45,3.0,-999.0,78,0.00,,,0.00,Wunderground v.1.15,2013-04-03 07:30:00,
2013-04-02 21:35:00,63.8,56.8,30.01,NE,45,3.0,-999.0,78,0.00,,,0.00,Wunderground v.1.15,2013-04-03 07:35:00,
2013-04-02 21:40:00,63.8,56.8,30.01,NE,45,3.0,-999.0,78,0.00,,,0.00,Wunderground v.1.15,2013-04-03 07:40:00,
2013-04-02 21:45:00,63.5,56.9,30.02,NE,45,3.0,-999.0,79,0.00,,,0.00,Wunderground v.1.15,2013-04-03 07:45:00,
2013-04-02 21:50:00,63.5,56.9,30.02,NE,45,3.0,-999.0,79,0.00,,,0.00,Wunderground v.1.15,2013-04-03 07:50:00,
2013-04-02 21:55:00,63.5,56.9,30.02,NE,45,3.0,-999.0,79,0.00,,,0.00,Wunderground v.1.15,2013-04-03 07:55:00,
2013-04-02 22:00:00,63.5,56.9,30.02,NE,45,3.0,-999.0,79,0.00,,,0.00,Wunderground v.1.15,2013-04-03 08:00:00,
2013-04-02 22:05:00,63.5,56.9,30.02,NE,45,3.0,-999.0,79,0.00,,,0.00,Wunderground v.1.15,2013-04-03 08:05:00,
2013-04-02 22:10:00,63.5,56.9,30.02,NE,45,3.0,-999.0,79,0.00,,,0.00,Wunderground v.1.15,2013-04-03 08:10:00,
2013-04-02 22:15:00,63.7,57.8,30.02,NE,45,4.0,-999.0,81,0.00,,,0.00,Wunderground v.1.15,2013-04-03 08:15:00,
2013-04-02 22:20:00,63.7,57.8,30.02,NE,45,4.0,-999.0,81,0.00,,,0.00,Wunderground v.1.15,2013-04-03 08:20:00,
2013-04-02 22:25:00,63.7,57.8,30.02,NE,45,4.0,-999.0,81,0.00,,,0.00,Wunderground v.1.15,2013-04-03 08:25:00,
2013-04-02 22:30:00,63.7,57.8,30.02,NE,45,4.0,-999.0,81,0.00,,,0.00,Wunderground v.1.15,2013-04-03 08:30:00,
2013-04-02 22:35:00,63.7,57.8,30.02,NE,45,4.0,-999.0,81,0.00,,,0.00,Wunderground v.1.15,2013-04-03 08:35:00,
2013-04-02 22:40:00,63.7,57.8,30.02,NE,45,4.0,-999.0,81,0.00,,,0.00,Wunderground v.1.15,2013-04-03 08:40:00,
2013-04-02 22:45:00,63.1,57.5,30.02,NE,45,2.0,-999.0,82,0.00,,,0.00,Wunderground v.1.15,2013-04-03 08:45:00,
2013-04-02 22:50:00,63.1,57.5,30.02,NE,45,2.0,-999.0,82,0.00,,,0.00,Wunderground v.1.15,2013-04-03 08:50:00,
2013-04-02 22:55:00,63.1,57.5,30.02,NE,45,2.0,-999.0,82,0.00,,,0.00,Wunderground v.1.15,2013-04-03 08:55:00,
2013-04-02 23:00:00,63.1,57.5,30.02,NE,45,2.0,-999.0,82,0.00,,,0.00,Wunderground v.1.15,2013-04-03 09:00:00,
2013-04-02 23:05:00,63.1,57.5,30.02,NE,45,2.0,-999.0,82,0.00,,,0.00,Wunderground v.1.15,2013-04-03 09:05:00,
2013-04-02 23:10:00,63.1,57.5,30.02,NE,45,2.0,-999.0,82,0.00,,,0.00,Wunderground v.1.15,2013-04-03 09:10:00,
2013-04-02 23:15:00,62.7,56.8,30.02,NE,45,2.0,-999.0,81,0.00,,,0.00,Wunderground v.1.15,2013-04-03 09:15:00,
2013-04-02 23:20:00,62.7,56.8,30.02,NE,45,2.0,-999.0,81,0.00,,,0.00,Wunderground v.1.15,2013-04-03 09:20:00,
2013-04-02 23:25:00,62.7,56.8,30.02,NE,45,2.0,-999.0,81,0.00,,,0.00,Wunderground v.1.15,2013-04-03 09:25:00,
2013-04-02 23:30:00,62.7,56.8,30.02,NE,45,2.0,-999.0,81,0.00,,,0.00,Wunderground v.1.15,2013-04-03 09:30:00,
2013-04-02 23:35:00,62.7,56.8,30.02,NE,45,2.0,-999.0,81,0.00,,,0.00,Wunderground v.1.15,2013-04-03 09:35:00,
2013-04-02 23:40:00,62.7,56.8,30.02,NE,45,2.0,-999.0,81,0.00,,,0.00,Wunderground v.1.15,2013-04-03 09:40:00,
2013-04-02 23:45:00,62.7,57.1,30.00,NE,45,3.0,-999.0,82,0.00,,,0.00,Wunderground v.1.15,2013-04-03 09:45:00,
2013-04-02 23:50:00,62.7,57.1,30.00,NE,45,3.0,-999.0,82,0.00,,,0.00,Wunderground v.1.15,2013-04-03 09:50:00,
2013-04-02 23:55:00,62.7,57.1,30.00,NE,45,3.0,-999.0,82,0.00,,,0.00,Wunderground v.1.15,2013-04-03 09:55:00,